createdAt,value
2023-05-01T00:02:26.099Z,1001.68
2023-05-01T00:07:25.992Z,1001.57
2023-05-01T00:12:25.892Z,1001.54
2023-05-01T00:17:28.866Z,1001.47
2023-05-01T00:22:25.755Z,1001.47
2023-05-01T00:27:26.397Z,1001.38
2023-05-01T00:32:25.624Z,1001.31
2023-05-01T00:37:25.623Z,1001.28
2023-05-01T00:42:25.531Z,1001.20
2023-05-01T00:47:26.080Z,1001.13
2023-05-01T00:52:25.404Z,1001.21
2023-05-01T00:57:25.375Z,1001.09
2023-05-01T01:02:25.254Z,1001.10
2023-05-01T01:07:25.255Z,1001.00
2023-05-01T01:12:25.146Z,1000.93
2023-05-01T01:17:28.203Z,1000.86
2023-05-01T01:22:25.025Z,1000.84
2023-05-01T01:27:24.983Z,1000.77
2023-05-01T01:32:24.849Z,1000.79
2023-05-01T01:37:24.960Z,1000.82
2023-05-01T01:42:24.744Z,1000.76
2023-05-01T01:47:24.734Z,1000.65
2023-05-01T01:52:24.632Z,1000.66
2023-05-01T01:57:24.655Z,1000.62
2023-05-01T02:02:24.469Z,1000.59
2023-05-01T02:07:24.394Z,1000.59
2023-05-01T02:12:24.349Z,1000.51
2023-05-01T02:17:27.569Z,1000.50
2023-05-01T02:22:24.229Z,1000.35
2023-05-01T02:27:24.176Z,1000.31
2023-05-01T02:32:24.082Z,1000.29
2023-05-01T02:37:24.019Z,1000.22
2023-05-01T02:42:23.911Z,1000.12
2023-05-01T02:47:24.019Z,1000.21
2023-05-01T02:52:23.808Z,1000.12
2023-05-01T02:57:23.789Z,1000.02
2023-05-01T03:02:23.712Z,1000.02
2023-05-01T03:07:23.737Z,999.93
2023-05-01T03:12:23.613Z,999.91
2023-05-01T03:17:26.536Z,999.91
2023-05-01T03:22:23.421Z,999.87
2023-05-01T03:27:23.382Z,999.81
2023-05-01T03:32:23.372Z,999.82
2023-05-01T03:37:23.283Z,999.81
2023-05-01T03:42:23.158Z,999.77
2023-05-01T03:47:23.237Z,999.69
2023-05-01T03:52:23.217Z,999.65
2023-05-01T03:57:23.815Z,999.69
2023-05-01T04:02:23.020Z,999.63
2023-05-01T04:07:23.038Z,999.54
2023-05-01T04:12:22.908Z,999.49
2023-05-01T04:17:26.195Z,999.44
2023-05-01T04:22:22.765Z,999.44
2023-05-01T04:27:22.681Z,999.42
2023-05-01T04:32:22.567Z,999.43
2023-05-01T04:37:22.517Z,999.38
2023-05-01T04:42:22.384Z,999.32
2023-05-01T04:47:22.601Z,999.33
2023-05-01T04:52:22.251Z,999.28
2023-05-01T04:57:22.216Z,999.27
2023-05-01T05:02:22.148Z,999.27
2023-05-01T05:07:22.367Z,999.21
2023-05-01T05:12:21.995Z,999.17
2023-05-01T05:17:25.107Z,999.12
2023-05-01T05:22:21.875Z,999.10
2023-05-01T05:27:22.044Z,999.03
2023-05-01T05:32:21.871Z,998.90
2023-05-01T05:37:21.711Z,998.82
2023-05-01T05:42:21.681Z,998.89
2023-05-01T05:47:21.667Z,998.77
2023-05-01T05:52:21.480Z,998.70
2023-05-01T05:57:21.472Z,998.58
2023-05-01T06:02:21.552Z,998.60
2023-05-01T06:07:21.950Z,998.50
2023-05-01T06:12:21.219Z,998.39
2023-05-01T06:17:24.170Z,998.33
2023-05-01T06:22:21.114Z,998.29
2023-05-01T06:27:21.090Z,998.19
2023-05-01T06:32:20.989Z,998.06
2023-05-01T06:37:21.072Z,997.93
2023-05-01T06:42:20.827Z,997.86
2023-05-01T06:47:21.002Z,997.86
2023-05-01T06:52:20.755Z,997.79
2023-05-01T06:57:20.665Z,997.69
2023-05-01T07:02:20.758Z,997.58
2023-05-01T07:07:20.671Z,997.53
2023-05-01T07:12:20.460Z,997.42
2023-05-01T07:17:23.587Z,997.39
2023-05-01T07:22:20.460Z,997.34
2023-05-01T07:27:20.290Z,997.31
2023-05-01T07:32:20.228Z,997.33
2023-05-01T07:37:20.143Z,997.26
2023-05-01T07:42:20.027Z,997.21
2023-05-01T07:47:20.719Z,997.18
2023-05-01T07:52:19.919Z,997.09
2023-05-01T07:57:20.030Z,997.03
2023-05-01T08:02:19.801Z,996.98
2023-05-01T08:07:19.825Z,996.83
2023-05-01T08:12:19.827Z,996.73
2023-05-01T08:17:22.676Z,996.56
2023-05-01T08:22:19.644Z,996.58
2023-05-01T08:27:20.069Z,996.53
2023-05-01T08:32:19.521Z,996.53
2023-05-01T08:37:19.390Z,996.47
2023-05-01T08:42:19.401Z,996.42
2023-05-01T08:47:19.327Z,996.40
2023-05-01T08:52:19.332Z,996.39
2023-05-01T08:57:19.172Z,996.33
2023-05-01T09:02:19.027Z,996.23
2023-05-01T09:07:19.003Z,996.21
2023-05-01T09:12:18.853Z,996.09
2023-05-01T09:17:22.061Z,996.12
2023-05-01T09:22:18.744Z,996.11
2023-05-01T09:27:18.750Z,996.09
2023-05-01T09:32:18.815Z,996.00
2023-05-01T09:37:18.739Z,995.96
2023-05-01T09:42:18.522Z,995.89
2023-05-01T09:47:18.459Z,995.84
2023-05-01T09:52:18.448Z,995.75
2023-05-01T09:57:18.307Z,995.65
2023-05-01T10:02:18.348Z,995.63
2023-05-01T10:07:18.257Z,995.56
2023-05-01T10:12:18.119Z,995.52
2023-05-01T10:17:28.637Z,995.58
2023-05-01T10:22:25.460Z,995.47
2023-05-01T10:27:17.987Z,995.42
2023-05-01T10:32:17.808Z,995.36
2023-05-01T10:37:17.877Z,995.30
2023-05-01T10:42:17.800Z,995.29
2023-05-01T10:47:17.768Z,995.26
2023-05-01T10:52:17.563Z,995.21
2023-05-01T10:57:17.566Z,995.16
2023-05-01T11:02:17.554Z,995.07
2023-05-01T11:07:17.738Z,994.97
2023-05-01T11:12:17.302Z,994.90
2023-05-01T11:17:20.428Z,994.84
2023-05-01T11:22:17.172Z,994.74
2023-05-01T11:27:17.275Z,994.65
2023-05-01T11:32:17.230Z,994.58
2023-05-01T11:37:17.067Z,994.55
2023-05-01T11:42:16.948Z,994.43
2023-05-01T11:47:16.897Z,994.43
2023-05-01T11:52:17.047Z,994.37
2023-05-01T11:57:16.945Z,994.29
2023-05-01T12:02:16.771Z,994.22
2023-05-01T12:07:16.610Z,994.23
2023-05-01T12:12:16.499Z,994.17
2023-05-01T12:17:19.871Z,994.13
2023-05-01T12:22:16.475Z,994.08
2023-05-01T12:27:16.387Z,994.11
2023-05-01T12:32:16.367Z,994.07
2023-05-01T12:37:16.484Z,994.14
2023-05-01T12:42:16.154Z,994.04
2023-05-01T12:47:16.374Z,993.95
2023-05-01T12:52:16.110Z,993.94
2023-05-01T12:57:16.018Z,993.90
2023-05-01T13:02:16.264Z,993.90
2023-05-01T13:07:15.963Z,993.82
2023-05-01T13:12:15.755Z,993.85
2023-05-01T13:17:18.729Z,993.85
2023-05-01T13:22:15.716Z,993.83
2023-05-01T13:27:15.690Z,993.75
2023-05-01T13:32:15.593Z,993.76
2023-05-01T13:37:15.676Z,993.77
2023-05-01T13:42:15.298Z,993.73
2023-05-01T13:47:15.283Z,993.74
2023-05-01T13:52:15.556Z,993.72
2023-05-01T13:57:15.176Z,993.72
2023-05-01T14:02:15.306Z,993.78
2023-05-01T14:07:15.194Z,993.78
2023-05-01T14:12:14.932Z,993.78
2023-05-01T14:17:18.125Z,993.77
2023-05-01T14:22:14.786Z,993.80
2023-05-01T14:27:14.780Z,993.70
2023-05-01T14:32:14.780Z,993.72
2023-05-01T14:37:15.089Z,993.66
2023-05-01T14:42:14.585Z,993.63
2023-05-01T14:47:14.518Z,993.67
2023-05-01T14:52:14.442Z,993.66
2023-05-01T14:57:14.380Z,993.70
2023-05-01T15:02:14.364Z,993.70
2023-05-01T15:07:14.305Z,993.76
2023-05-01T15:12:14.203Z,993.68
2023-05-01T15:17:17.262Z,993.70
2023-05-01T15:22:14.062Z,993.73
2023-05-01T15:27:14.021Z,993.75
2023-05-01T15:32:14.015Z,993.76
2023-05-01T15:37:13.852Z,993.82
2023-05-01T15:42:13.775Z,993.81
2023-05-01T15:47:13.842Z,993.80
2023-05-01T15:52:13.635Z,993.80
2023-05-01T15:57:13.701Z,993.76
2023-05-01T16:02:13.547Z,993.80
2023-05-01T16:07:13.730Z,993.79
2023-05-01T16:12:13.460Z,993.86
2023-05-01T16:17:16.447Z,993.93
2023-05-01T16:22:13.254Z,994.02
2023-05-01T16:27:13.412Z,994.02
2023-05-01T16:32:13.285Z,994.10
2023-05-01T16:37:13.312Z,994.11
2023-05-01T16:42:12.965Z,994.21
2023-05-01T16:47:12.939Z,994.26
2023-05-01T16:52:12.855Z,994.32
2023-05-01T16:57:13.652Z,994.52
2023-05-01T17:02:12.748Z,994.60
2023-05-01T17:07:12.681Z,994.66
2023-05-01T17:12:12.627Z,994.74
2023-05-01T17:17:15.662Z,994.69
2023-05-01T17:22:12.455Z,994.72
2023-05-01T17:27:12.420Z,994.81
2023-05-01T17:32:14.442Z,994.72
2023-05-01T17:37:13.456Z,994.68
2023-05-01T17:42:12.183Z,994.71
2023-05-01T17:47:12.274Z,994.70
2023-05-01T17:52:12.051Z,994.62
2023-05-01T17:57:12.194Z,994.58
2023-05-01T18:02:12.185Z,994.67
2023-05-01T18:07:11.995Z,994.74
2023-05-01T18:12:11.799Z,994.74
2023-05-01T18:17:15.037Z,994.78
2023-05-01T18:22:11.648Z,994.84
2023-05-01T18:27:11.649Z,994.97
2023-05-01T18:32:13.529Z,995.09
2023-05-01T18:37:11.499Z,995.09
2023-05-01T18:42:11.448Z,995.13
2023-05-01T18:47:11.400Z,995.07
2023-05-01T18:52:11.233Z,995.11
2023-05-01T18:57:11.338Z,995.23
2023-05-01T19:02:11.341Z,995.23
2023-05-01T19:07:11.084Z,995.28
2023-05-01T19:12:11.029Z,995.32
2023-05-01T19:17:14.117Z,995.46
2023-05-01T19:22:11.011Z,995.46
2023-05-01T19:27:10.834Z,995.50
2023-05-01T19:32:10.756Z,995.54
2023-05-01T19:37:10.698Z,995.51
2023-05-01T19:42:10.603Z,995.53
2023-05-01T19:47:10.543Z,995.52
2023-05-01T19:52:10.449Z,995.53
2023-05-01T19:57:10.627Z,995.71
2023-05-01T20:02:10.361Z,995.71
2023-05-01T20:07:10.353Z,995.73
2023-05-01T20:12:10.208Z,995.70
2023-05-01T20:17:13.203Z,995.73
2023-05-01T20:22:10.132Z,995.80
2023-05-01T20:27:10.185Z,995.85
2023-05-01T20:32:09.969Z,995.79
2023-05-01T20:37:10.105Z,995.83
2023-05-01T20:42:09.778Z,995.85
2023-05-01T20:47:09.739Z,995.85
2023-05-01T20:52:09.664Z,995.89
2023-05-01T20:57:09.632Z,995.87
2023-05-01T21:02:09.959Z,995.89
2023-05-01T21:07:09.520Z,995.90
2023-05-01T21:12:09.425Z,995.93
2023-05-01T21:17:12.372Z,996.03
2023-05-01T21:22:09.283Z,995.98
2023-05-01T21:27:09.336Z,995.95
2023-05-01T21:32:09.256Z,996.02
2023-05-01T21:37:09.103Z,996.02
2023-05-01T21:42:09.042Z,996.09
2023-05-01T21:47:08.977Z,996.03
2023-05-01T21:52:08.824Z,996.03
2023-05-01T21:57:08.916Z,996.06
2023-05-01T22:02:08.689Z,996.08
2023-05-01T22:07:08.690Z,996.16
2023-05-01T22:12:08.582Z,996.20
2023-05-01T22:17:11.584Z,996.21
2023-05-01T22:22:08.547Z,996.20
2023-05-01T22:27:08.481Z,996.23
2023-05-01T22:32:08.624Z,996.24
2023-05-01T22:37:08.246Z,996.22
2023-05-01T22:42:08.243Z,996.20
2023-05-01T22:47:08.680Z,996.20
2023-05-01T22:52:08.044Z,996.17
2023-05-01T22:57:08.076Z,996.20
2023-05-01T23:02:08.120Z,996.27
2023-05-01T23:07:08.061Z,996.29
2023-05-01T23:12:08.758Z,996.40
2023-05-01T23:17:10.917Z,996.40
2023-05-01T23:22:07.665Z,996.37
2023-05-01T23:27:07.636Z,996.34
2023-05-01T23:32:07.641Z,996.35
2023-05-01T23:37:07.496Z,996.29
2023-05-01T23:42:07.399Z,996.36
2023-05-01T23:47:07.578Z,996.41
2023-05-01T23:52:07.432Z,996.49
2023-05-01T23:57:07.383Z,996.52
